Time,TemperatureF,DewpointF,PressureIn,WindDirection,WindDirectionDegrees,WindSpeedMPH,WindSpeedGustMPH,Humidity,HourlyPrecipIn,Conditions,Clouds,dailyrainin,SoftwareType,DateUTC
2013-02-14 00:00:00,40.4,37.7,30.50,NW,311,0.0,0.0,90,0.00,OVC,,0.07,WeatherDisplay:10.37,2013-02-14 08:00:00,
2013-02-14 00:05:00,40.4,37.4,30.50,NW,311,0.0,0.0,89,0.00,RA,,0.00,WeatherDisplay:10.37,2013-02-14 08:05:00,
2013-02-14 00:10:00,40.3,37.3,30.50,NW,311,0.0,0.0,89,0.00,OVC,,0.00,WeatherDisplay:10.37,2013-02-14 08:10:00,
2013-02-14 00:15:00,40.2,37.2,30.51,NW,311,0.0,0.0,89,0.00,OVC,,0.00,WeatherDisplay:10.37,2013-02-14 08:15:00,
2013-02-14 00:20:00,40.2,37.2,30.51,NW,311,0.0,0.0,89,0.00,OVC,,0.00,WeatherDisplay:10.37,2013-02-14 08:20:00,
2013-02-14 00:25:00,40.2,37.2,30.51,NW,311,0.0,0.0,89,0.00,OVC,,0.00,WeatherDisplay:10.37,2013-02-14 08:25:00,
2013-02-14 00:30:00,40.2,37.2,30.52,NW,311,0.0,0.0,89,0.00,OVC,,0.00,WeatherDisplay:10.37,2013-02-14 08:30:00,
2013-02-14 00:35:00,40.1,37.1,30.52,NW,311,0.0,0.0,89,0.00,OVC,,0.00,WeatherDisplay:10.37,2013-02-14 08:35:00,
2013-02-14 00:40:00,40.0,37.0,30.52,NW,311,0.0,0.0,89,0.00,OVC,,0.00,WeatherDisplay:10.37,2013-02-14 08:40:00,
2013-02-14 00:45:00,39.8,36.8,30.52,NW,311,0.0,0.0,89,0.00,OVC,,0.00,WeatherDisplay:10.37,2013-02-14 08:45:00,
2013-02-14 00:50:00,39.6,36.6,30.52,NW,311,0.0,0.0,89,0.00,OVC,,0.00,WeatherDisplay:10.37,2013-02-14 08:50:00,
2013-02-14 00:55:00,39.5,36.5,30.53,NW,311,0.0,0.0,89,0.00,OVC,,0.00,WeatherDisplay:10.37,2013-02-14 08:55:00,
2013-02-14 01:00:00,39.4,36.7,30.53,NW,311,0.0,0.0,90,0.00,OVC,,0.00,WeatherDisplay:10.37,2013-02-14 09:00:00,
2013-02-14 01:05:00,39.2,36.5,30.52,NW,311,0.0,0.0,90,0.00,OVC,,0.00,WeatherDisplay:10.37,2013-02-14 09:05:00,
2013-02-14 01:10:00,39.1,36.4,30.52,NW,311,0.0,0.0,90,0.00,OVC,,0.00,WeatherDisplay:10.37,2013-02-14 09:10:00,
2013-02-14 01:15:00,39.0,36.3,30.52,NW,311,0.0,0.0,90,0.00,OVC,,0.00,WeatherDisplay:10.37,2013-02-14 09:15:00,
2013-02-14 01:20:00,38.9,36.5,30.52,NW,311,0.0,0.0,91,0.00,OVC,,0.00,WeatherDisplay:10.37,2013-02-14 09:20:00,
2013-02-14 01:25:00,38.9,36.5,30.52,NW,311,0.0,0.0,91,0.00,OVC,,0.00,WeatherDisplay:10.37,2013-02-14 09:25:00,
2013-02-14 01:30:00,38.9,36.5,30.52,NW,311,0.0,0.0,91,0.00,OVC,,0.00,WeatherDisplay:10.37,2013-02-14 09:30:00,
2013-02-14 01:35:00,38.8,36.4,30.52,NW,311,0.0,0.0,91,0.00,OVC,,0.00,WeatherDisplay:10.37,2013-02-14 09:35:00,
2013-02-14 01:40:00,38.8,36.4,30.52,NW,311,0.0,0.0,91,0.00,OVC,,0.00,WeatherDisplay:10.37,2013-02-14 09:40:00,
2013-02-14 01:45:00,38.8,36.7,30.52,NW,311,0.0,0.0,92,0.00,OVC,,0.00,WeatherDisplay:10.37,2013-02-14 09:45:00,
2013-02-14 01:50:00,38.8,36.7,30.52,NW,311,0.0,0.0,92,0.00,OVC,,0.00,WeatherDisplay:10.37,2013-02-14 09:50:00,
2013-02-14 01:55:00,38.8,36.7,30.53,NW,311,0.0,0.0,92,0.00,OVC,,0.00,WeatherDisplay:10.37,2013-02-14 09:55:00,
2013-02-14 02:00:00,38.8,36.7,30.53,NW,311,0.0,0.0,92,0.00,OVC,,0.00,WeatherDisplay:10.37,2013-02-14 10:00:00,
2013-02-14 02:05:00,38.7,36.6,30.53,NW,311,0.0,0.0,92,0.00,OVC,,0.00,WeatherDisplay:10.37,2013-02-14 10:05:00,
2013-02-14 02:10:00,38.7,36.6,30.53,NW,311,0.0,0.0,92,0.00,OVC,,0.00,WeatherDisplay:10.37,2013-02-14 10:10:00,
2013-02-14 02:15:00,38.7,36.6,30.53,NW,311,0.0,0.0,92,0.00,OVC,,0.00,WeatherDisplay:10.37,2013-02-14 10:15:00,
2013-02-14 02:20:00,38.7,36.6,30.53,NW,311,0.0,0.0,92,0.00,OVC,,0.00,WeatherDisplay:10.37,2013-02-14 10:20:00,
2013-02-14 02:25:00,38.7,36.6,30.53,NW,311,0.0,0.0,92,0.00,OVC,,0.00,WeatherDisplay:10.37,2013-02-14 10:25:00,
2013-02-14 02:30:00,38.7,36.6,30.53,NW,311,0.0,0.0,92,0.00,OVC,,0.00,WeatherDisplay:10.37,2013-02-14 10:30:00,
2013-02-14 02:35:00,38.7,36.6,30.53,NW,311,0.0,0.0,92,0.00,OVC,,0.00,WeatherDisplay:10.37,2013-02-14 10:35:00,
2013-02-14 02:40:00,38.7,36.6,30.53,NW,311,0.0,0.0,92,0.00,OVC,,0.00,WeatherDisplay:10.37,2013-02-14 10:40:00,
2013-02-14 02:45:00,38.7,36.6,30.53,NW,311,0.0,0.0,92,0.00,OVC,,0.00,WeatherDisplay:10.37,2013-02-14 10:45:00,
2013-02-14 02:50:00,38.7,36.6,30.52,NW,311,0.0,0.0,92,0.00,OVC,,0.00,WeatherDisplay:10.37,2013-02-14 10:50:00,
2013-02-14 02:55:00,38.8,36.9,30.53,NW,311,0.0,0.0,93,0.00,OVC,,0.00,WeatherDisplay:10.37,2013-02-14 10:55:00,
2013-02-14 03:00:00,38.8,36.9,30.52,NW,311,0.0,0.0,93,0.00,OVC,,0.00,WeatherDisplay:10.37,2013-02-14 11:00:00,
2013-02-14 03:05:00,38.9,37.0,30.52,NW,311,0.0,0.0,93,0.00,OVC,,0.00,WeatherDisplay:10.37,2013-02-14 11:05:00,
2013-02-14 03:10:00,38.9,37.0,30.52,NW,311,0.0,0.0,93,0.00,OVC,,0.00,WeatherDisplay:10.37,2013-02-14 11:10:00,
2013-02-14 03:15:00,38.9,37.0,30.52,NW,311,0.0,0.0,93,0.00,OVC,,0.00,WeatherDisplay:10.37,2013-02-14 11:15:00,
2013-02-14 03:20:00,38.8,36.9,30.52,NW,311,0.0,0.0,93,0.00,OVC,,0.00,WeatherDisplay:10.37,2013-02-14 11:20:00,
2013-02-14 03:25:00,38.8,36.7,30.52,NW,311,0.0,0.0,92,0.00,OVC,,0.00,WeatherDisplay:10.37,2013-02-14 11:25:00,
2013-02-14 03:30:00,38.8,36.7,30.52,NW,311,0.0,0.0,92,0.00,OVC,,0.00,WeatherDisplay:10.37,2013-02-14 11:30:00,
2013-02-14 03:35:00,38.8,36.7,30.51,NW,311,0.0,0.0,92,0.00,OVC,,0.00,WeatherDisplay:10.37,2013-02-14 11:35:00,
2013-02-14 03:40:00,38.8,36.7,30.51,NW,311,0.0,0.0,92,0.00,OVC,,0.00,WeatherDisplay:10.37,2013-02-14 11:40:00,
2013-02-14 03:45:00,38.7,36.6,30.51,NW,311,0.0,0.0,92,0.00,OVC,,0.00,WeatherDisplay:10.37,2013-02-14 11:45:00,
2013-02-14 03:50:00,38.7,36.6,30.51,NW,311,0.0,0.0,92,0.00,OVC,,0.00,WeatherDisplay:10.37,2013-02-14 11:50:00,
2013-02-14 03:55:00,38.7,36.6,30.51,NW,311,0.0,0.0,92,0.00,OVC,,0.00,WeatherDisplay:10.37,2013-02-14 11:55:00,
2013-02-14 04:00:00,38.7,36.6,30.51,NW,311,0.0,0.0,92,0.00,OVC,,0.00,WeatherDisplay:10.37,2013-02-14 12:00:00,
2013-02-14 04:05:00,38.8,36.7,30.52,NW,311,0.0,0.0,92,0.00,OVC,,0.00,WeatherDisplay:10.37,2013-02-14 12:05:00,
2013-02-14 04:10:00,38.9,36.8,30.52,NW,311,0.0,0.0,92,0.00,OVC,,0.00,WeatherDisplay:10.37,2013-02-14 12:10:00,
2013-02-14 04:15:00,38.9,36.8,30.52,NW,311,0.0,0.0,92,0.00,OVC,,0.00,WeatherDisplay:10.37,2013-02-14 12:15:00,
2013-02-14 04:20:00,38.9,36.8,30.52,NW,311,0.0,0.0,92,0.00,OVC,,0.00,WeatherDisplay:10.37,2013-02-14 12:20:00,
2013-02-14 04:25:00,38.9,36.8,30.52,NW,311,0.0,0.0,92,0.00,OVC,,0.00,WeatherDisplay:10.37,2013-02-14 12:25:00,
2013-02-14 04:30:00,38.8,36.7,30.52,NW,311,0.0,0.0,92,0.00,OVC,,0.00,WeatherDisplay:10.37,2013-02-14 12:30:00,
2013-02-14 04:35:00,38.5,36.4,30.52,NW,311,0.0,0.0,92,0.00,OVC,,0.00,WeatherDisplay:10.37,2013-02-14 12:35:00,
2013-02-14 04:40:00,38.2,36.1,30.52,NW,311,0.0,0.0,92,0.00,OVC,,0.00,WeatherDisplay:10.37,2013-02-14 12:40:00,
2013-02-14 04:45:00,38.0,35.9,30.52,NW,311,0.0,0.0,92,0.00,OVC,,0.00,WeatherDisplay:10.37,2013-02-14 12:45:00,
2013-02-14 04:50:00,37.8,35.7,30.53,NW,311,0.0,0.0,92,0.00,OVC,,0.00,WeatherDisplay:10.37,2013-02-14 12:50:00,
2013-02-14 04:55:00,37.6,35.5,30.53,NW,311,0.0,0.0,92,0.00,OVC,,0.00,WeatherDisplay:10.37,2013-02-14 12:55:00,
2013-02-14 05:00:00,37.5,35.4,30.53,NW,311,0.0,0.0,92,0.00,OVC,,0.00,WeatherDisplay:10.37,2013-02-14 13:00:00,
2013-02-14 05:05:00,37.4,35.3,30.53,NW,311,0.0,0.0,92,0.00,OVC,,0.00,WeatherDisplay:10.37,2013-02-14 13:05:00,
2013-02-14 05:10:00,37.4,35.3,30.53,NW,311,0.0,0.0,92,0.00,OVC,,0.00,WeatherDisplay:10.37,2013-02-14 13:10:00,
2013-02-14 05:15:00,37.4,35.3,30.53,NW,311,0.0,0.0,92,0.00,OVC,,0.00,WeatherDisplay:10.37,2013-02-14 13:15:00,
2013-02-14 05:20:00,37.3,35.2,30.53,NW,311,0.0,0.0,92,0.00,OVC,,0.00,WeatherDisplay:10.37,2013-02-14 13:20:00,
2013-02-14 05:25:00,37.3,35.2,30.53,NW,311,0.0,0.0,92,0.00,OVC,,0.00,WeatherDisplay:10.37,2013-02-14 13:25:00,
2013-02-14 05:30:00,37.4,35.6,30.53,NW,311,0.0,0.0,93,0.00,OVC,,0.00,WeatherDisplay:10.37,2013-02-14 13:30:00,
2013-02-14 05:35:00,37.6,35.8,30.53,NW,311,0.0,0.0,93,0.00,OVC,,0.00,WeatherDisplay:10.37,2013-02-14 13:35:00,
2013-02-14 05:40:00,37.7,35.9,30.53,NW,311,0.0,0.0,93,0.00,OVC,,0.00,WeatherDisplay:10.37,2013-02-14 13:40:00,
2013-02-14 05:45:00,37.8,36.0,30.53,NW,311,0.0,0.0,93,0.00,OVC,,0.00,WeatherDisplay:10.37,2013-02-14 13:45:00,
2013-02-14 05:50:00,37.8,36.0,30.53,NW,311,0.0,0.0,93,0.00,OVC,,0.00,WeatherDisplay:10.37,2013-02-14 13:50:00,
2013-02-14 05:55:00,37.9,36.1,30.53,NW,311,0.0,0.0,93,0.00,OVC,,0.00,WeatherDisplay:10.37,2013-02-14 13:55:00,
2013-02-14 06:00:00,37.9,36.1,30.53,NW,311,0.0,0.0,93,0.00,OVC,,0.00,WeatherDisplay:10.37,2013-02-14 14:00:00,
2013-02-14 06:05:00,38.0,36.2,30.53,NW,311,0.0,0.0,93,0.00,OVC,,0.00,WeatherDisplay:10.37,2013-02-14 14:05:00,
2013-02-14 06:10:00,38.1,36.3,30.54,NW,311,0.0,0.0,93,0.00,OVC,,0.00,WeatherDisplay:10.37,2013-02-14 14:10:00,
2013-02-14 06:15:00,38.0,36.2,30.54,NW,311,0.0,0.0,93,0.00,OVC,,0.00,WeatherDisplay:10.37,2013-02-14 14:15:00,
2013-02-14 06:20:00,38.0,36.2,30.54,NW,311,1.1,1.1,93,0.00,OVC,,0.00,WeatherDisplay:10.37,2013-02-14 14:20:00,
2013-02-14 06:25:00,37.7,35.9,30.54,North,355,1.1,0.0,93,0.00,OVC,,0.00,WeatherDisplay:10.37,2013-02-14 14:25:00,
2013-02-14 06:30:00,37.5,35.7,30.53,North,355,0.0,0.0,93,0.00,OVC,,0.00,WeatherDisplay:10.37,2013-02-14 14:30:00,
2013-02-14 06:35:00,37.5,35.7,30.54,North,355,0.0,0.0,93,0.00,OVC,,0.00,WeatherDisplay:10.37,2013-02-14 14:35:00,
2013-02-14 06:40:00,37.6,35.8,30.54,North,355,0.0,0.0,93,0.00,OVC,,0.00,WeatherDisplay:10.37,2013-02-14 14:40:00,
2013-02-14 06:45:00,37.8,36.0,30.54,North,355,0.0,0.0,93,0.00,OVC,,0.00,WeatherDisplay:10.37,2013-02-14 14:45:00,
2013-02-14 06:50:00,37.9,36.1,30.54,North,355,0.0,0.0,93,0.00,OVC,,0.00,WeatherDisplay:10.37,2013-02-14 14:50:00,
2013-02-14 06:55:00,38.0,36.2,30.54,North,355,0.0,0.0,93,0.00,OVC,,0.00,WeatherDisplay:10.37,2013-02-14 14:55:00,
2013-02-14 07:00:00,38.1,36.3,30.54,North,355,0.0,0.0,93,0.00,OVC,,0.00,WeatherDisplay:10.37,2013-02-14 15:00:00,
2013-02-14 07:05:00,38.2,36.4,30.54,North,355,0.0,0.0,93,0.00,OVC,,0.00,WeatherDisplay:10.37,2013-02-14 15:05:00,
2013-02-14 07:10:00,38.2,36.4,30.54,North,355,0.0,0.0,93,0.00,OVC,,0.00,WeatherDisplay:10.37,2013-02-14 15:10:00,
2013-02-14 07:15:00,38.3,36.5,30.54,North,355,0.0,0.0,93,0.00,OVC,,0.00,WeatherDisplay:10.37,2013-02-14 15:15:00,
2013-02-14 07:20:00,38.3,36.5,30.54,North,355,0.0,0.0,93,0.00,OVC,,0.00,WeatherDisplay:10.37,2013-02-14 15:20:00,
2013-02-14 07:25:00,38.3,36.5,30.53,North,355,0.0,0.0,93,0.00,OVC,,0.00,WeatherDisplay:10.37,2013-02-14 15:25:00,
2013-02-14 07:30:00,38.3,36.5,30.53,North,355,0.0,0.0,93,0.00,OVC,,0.00,WeatherDisplay:10.37,2013-02-14 15:30:00,
2013-02-14 07:35:00,38.4,36.8,30.52,SSE,148,3.5,3.5,94,0.00,OVC,,0.00,WeatherDisplay:10.37,2013-02-14 15:35:00,
2013-02-14 07:40:00,38.8,37.2,30.52,SSE,153,3.5,3.5,94,0.00,OVC,,0.00,WeatherDisplay:10.37,2013-02-14 15:40:00,
2013-02-14 07:45:00,39.3,37.7,30.53,SE,141,4.6,4.6,94,0.00,OVC,,0.00,WeatherDisplay:10.37,2013-02-14 15:45:00,
2013-02-14 07:50:00,40.0,38.4,30.53,SSE,161,3.0,3.0,94,0.00,OVC,,0.00,WeatherDisplay:10.37,2013-02-14 15:50:00,
2013-02-14 07:55:00,40.4,38.5,30.54,WSW,250,3.0,3.0,93,0.00,OVC,,0.00,WeatherDisplay:10.37,2013-02-14 15:55:00,
2013-02-14 08:00:00,39.8,37.7,30.54,NW,323,4.6,4.6,92,0.00,OVC,,0.00,WeatherDisplay:10.37,2013-02-14 16:00:00,
2013-02-14 08:05:00,39.1,36.7,30.55,NW,323,2.3,2.3,91,0.00,OVC,,0.00,WeatherDisplay:10.37,2013-02-14 16:05:00,
2013-02-14 08:10:00,38.8,36.4,30.54,NW,323,1.1,0.0,91,0.00,OVC,,0.00,WeatherDisplay:10.37,2013-02-14 16:10:00,
2013-02-14 08:15:00,38.6,36.5,30.55,NW,323,0.0,0.0,92,0.00,OVC,,0.00,WeatherDisplay:10.37,2013-02-14 16:15:00,
2013-02-14 08:20:00,38.6,36.5,30.55,NW,323,0.0,0.0,92,0.00,OVC,,0.00,WeatherDisplay:10.37,2013-02-14 16:20:00,
2013-02-14 08:25:00,38.6,36.5,30.55,NW,323,0.0,0.0,92,0.00,OVC,,0.00,WeatherDisplay:10.37,2013-02-14 16:25:00,
2013-02-14 08:30:00,38.7,36.6,30.55,WNW,302,3.5,3.5,92,0.00,OVC,,0.00,WeatherDisplay:10.37,2013-02-14 16:30:00,
2013-02-14 08:35:00,38.4,36.3,30.55,NW,307,1.1,1.1,92,0.00,OVC,,0.00,WeatherDisplay:10.37,2013-02-14 16:35:00,
2013-02-14 08:40:00,38.3,36.2,30.56,NW,307,1.1,0.0,92,0.00,OVC,,0.00,WeatherDisplay:10.37,2013-02-14 16:40:00,
2013-02-14 08:45:00,38.3,36.2,30.56,NW,307,0.0,0.0,92,0.00,OVC,,0.00,WeatherDisplay:10.37,2013-02-14 16:45:00,
2013-02-14 08:50:00,38.3,36.5,30.56,NW,307,0.0,0.0,93,0.00,OVC,,0.00,WeatherDisplay:10.37,2013-02-14 16:50:00,
2013-02-14 08:55:00,38.4,36.6,30.56,NW,307,0.0,0.0,93,0.00,OVC,,0.00,WeatherDisplay:10.37,2013-02-14 16:55:00,
2013-02-14 09:00:00,38.5,36.7,30.56,NW,307,0.0,0.0,93,0.00,OVC,,0.00,WeatherDisplay:10.37,2013-02-14 17:00:00,
2013-02-14 09:05:00,38.7,36.9,30.56,NW,307,0.0,0.0,93,0.00,OVC,,0.00,WeatherDisplay:10.37,2013-02-14 17:05:00,
2013-02-14 09:10:00,38.8,36.9,30.56,NW,307,0.0,0.0,93,0.00,OVC,,0.00,WeatherDisplay:10.37,2013-02-14 17:10:00,
2013-02-14 09:15:00,38.9,37.0,30.56,NW,307,0.0,0.0,93,0.00,OVC,,0.00,WeatherDisplay:10.37,2013-02-14 17:15:00,
2013-02-14 09:20:00,38.9,37.0,30.56,NW,307,0.0,0.0,93,0.00,OVC,,0.00,WeatherDisplay:10.37,2013-02-14 17:20:00,
2013-02-14 09:25:00,39.1,37.2,30.56,NW,307,0.0,0.0,93,0.00,OVC,,0.00,WeatherDisplay:10.37,2013-02-14 17:25:00,
2013-02-14 09:30:00,39.2,37.6,30.56,NW,307,0.0,0.0,94,0.00,OVC,,0.00,WeatherDisplay:10.37,2013-02-14 17:30:00,
2013-02-14 09:35:00,39.3,37.7,30.56,NW,307,0.0,0.0,94,0.00,OVC,,0.00,WeatherDisplay:10.37,2013-02-14 17:35:00,
2013-02-14 09:40:00,39.5,37.9,30.56,NW,306,1.1,1.1,94,0.00,OVC,,0.00,WeatherDisplay:10.37,2013-02-14 17:40:00,
2013-02-14 09:45:00,39.5,37.9,30.56,NW,306,1.1,1.1,94,0.00,OVC,,0.00,WeatherDisplay:10.37,2013-02-14 17:45:00,
2013-02-14 09:50:00,39.6,38.0,30.55,NW,306,1.1,0.0,94,0.00,OVC,,0.00,WeatherDisplay:10.37,2013-02-14 17:50:00,
2013-02-14 09:55:00,39.6,38.0,30.56,NW,306,0.0,0.0,94,0.01,RA,,0.01,WeatherDisplay:10.37,2013-02-14 17:55:00,
2013-02-14 10:00:00,39.7,38.1,30.55,SSE,157,3.5,3.5,94,0.01,RA,,0.01,WeatherDisplay:10.37,2013-02-14 18:00:00,
2013-02-14 10:05:00,39.7,38.1,30.55,SSE,157,0.0,0.0,94,0.01,OVC,,0.01,WeatherDisplay:10.37,2013-02-14 18:05:00,
2013-02-14 10:10:00,39.9,38.3,30.55,SSE,157,0.0,0.0,94,0.01,OVC,,0.01,WeatherDisplay:10.37,2013-02-14 18:10:00,
2013-02-14 10:15:00,40.2,38.6,30.55,SSE,157,1.1,0.0,94,0.01,OVC,,0.01,WeatherDisplay:10.37,2013-02-14 18:15:00,
2013-02-14 10:20:00,40.7,39.1,30.56,South,182,3.5,3.5,94,0.01,OVC,,0.01,WeatherDisplay:10.37,2013-02-14 18:20:00,
2013-02-14 10:25:00,41.1,39.5,30.56,South,182,1.0,1.0,94,0.01,OVC,,0.01,WeatherDisplay:10.37,2013-02-14 18:25:00,
2013-02-14 10:30:00,41.4,39.8,30.56,South,182,2.3,2.3,94,0.01,OVC,,0.01,WeatherDisplay:10.37,2013-02-14 18:30:00,
2013-02-14 10:35:00,41.7,40.1,30.55,South,183,2.3,2.3,94,0.01,OVC,,0.01,WeatherDisplay:10.37,2013-02-14 18:35:00,
2013-02-14 10:40:00,41.8,40.2,30.56,South,183,1.1,0.0,94,0.01,OVC,,0.01,WeatherDisplay:10.37,2013-02-14 18:40:00,
2013-02-14 10:45:00,41.8,40.2,30.56,South,183,0.0,0.0,94,0.01,OVC,,0.01,WeatherDisplay:10.37,2013-02-14 18:45:00,
2013-02-14 10:50:00,41.7,40.1,30.56,South,183,0.0,0.0,94,0.01,OVC,,0.01,WeatherDisplay:10.37,2013-02-14 18:50:00,
2013-02-14 10:55:00,41.6,40.0,30.56,South,183,0.0,0.0,94,0.00,OVC,,0.01,WeatherDisplay:10.37,2013-02-14 18:55:00,
2013-02-14 11:00:00,41.5,39.9,30.56,South,183,0.0,0.0,94,0.00,OVC,,0.01,WeatherDisplay:10.37,2013-02-14 19:00:00,
2013-02-14 11:05:00,41.4,39.8,30.56,South,183,0.0,0.0,94,0.00,OVC,,0.01,WeatherDisplay:10.37,2013-02-14 19:05:00,
2013-02-14 11:10:00,41.2,39.6,30.56,South,183,0.0,0.0,94,0.00,OVC,,0.01,WeatherDisplay:10.37,2013-02-14 19:10:00,
2013-02-14 11:15:00,41.2,39.6,30.56,South,183,0.0,0.0,94,0.00,OVC,,0.01,WeatherDisplay:10.37,2013-02-14 19:15:00,
2013-02-14 11:20:00,41.1,39.5,30.56,South,183,0.0,0.0,94,0.00,OVC,,0.01,WeatherDisplay:10.37,2013-02-14 19:20:00,
2013-02-14 11:25:00,41.1,39.5,30.57,South,183,0.0,0.0,94,0.00,OVC,,0.01,WeatherDisplay:10.37,2013-02-14 19:25:00,
2013-02-14 11:30:00,41.3,39.7,30.57,South,183,1.1,1.1,94,0.00,OVC,,0.01,WeatherDisplay:10.37,2013-02-14 19:30:00,
2013-02-14 11:35:00,41.3,39.7,30.57,South,183,0.0,0.0,94,0.00,OVC,,0.01,WeatherDisplay:10.37,2013-02-14 19:35:00,
2013-02-14 11:40:00,41.3,39.7,30.57,South,183,1.0,1.0,94,0.00,OVC,,0.01,WeatherDisplay:10.37,2013-02-14 19:40:00,
2013-02-14 11:45:00,41.4,39.8,30.57,South,182,3.5,3.5,94,0.00,OVC,,0.01,WeatherDisplay:10.37,2013-02-14 19:45:00,
2013-02-14 11:50:00,41.5,39.9,30.56,South,182,2.3,2.3,94,0.00,OVC,,0.01,WeatherDisplay:10.37,2013-02-14 19:50:00,
2013-02-14 11:55:00,41.6,40.0,30.56,South,182,2.3,2.3,94,0.00,OVC,,0.01,WeatherDisplay:10.37,2013-02-14 19:55:00,
2013-02-14 12:00:00,41.6,40.0,30.56,South,182,2.3,2.3,94,0.00,OVC,,0.01,WeatherDisplay:10.37,2013-02-14 20:00:00,
2013-02-14 12:05:00,41.8,40.2,30.56,South,182,2.3,2.3,94,0.00,OVC,,0.01,WeatherDisplay:10.37,2013-02-14 20:05:00,
2013-02-14 12:10:00,41.9,40.3,30.56,South,169,3.5,3.5,94,0.00,OVC,,0.01,WeatherDisplay:10.37,2013-02-14 20:10:00,
2013-02-14 12:15:00,42.1,40.5,30.56,SSE,164,3.5,3.5,94,0.00,OVC,,0.01,WeatherDisplay:10.37,2013-02-14 20:15:00,
2013-02-14 12:20:00,42.2,40.6,30.56,SSE,151,2.3,2.3,94,0.00,OVC,,0.01,WeatherDisplay:10.37,2013-02-14 20:20:00,
2013-02-14 12:25:00,42.4,40.8,30.56,South,170,4.6,4.6,94,0.00,OVC,,0.01,WeatherDisplay:10.37,2013-02-14 20:25:00,
2013-02-14 12:30:00,42.4,40.8,30.56,SSE,159,9.2,9.2,94,0.00,OVC,,0.01,WeatherDisplay:10.37,2013-02-14 20:30:00,
2013-02-14 12:35:00,42.4,40.8,30.56,SSE,166,4.6,4.6,94,0.00,OVC,,0.01,WeatherDisplay:10.37,2013-02-14 20:35:00,
2013-02-14 12:40:00,42.6,41.0,30.56,SSE,147,5.8,5.8,94,0.00,OVC,,0.01,WeatherDisplay:10.37,2013-02-14 20:40:00,
2013-02-14 12:45:00,42.7,41.1,30.56,SSE,162,2.3,2.3,94,0.00,OVC,,0.01,WeatherDisplay:10.37,2013-02-14 20:45:00,
2013-02-14 12:50:00,42.8,41.2,30.56,South,188,4.6,4.6,94,0.00,OVC,,0.01,WeatherDisplay:10.37,2013-02-14 20:50:00,
2013-02-14 12:55:00,42.8,41.2,30.56,SSW,200,4.6,4.6,94,0.00,OVC,,0.01,WeatherDisplay:10.37,2013-02-14 20:55:00,
2013-02-14 13:00:00,42.8,41.2,30.56,SSE,155,3.5,3.5,94,0.00,OVC,,0.01,WeatherDisplay:10.37,2013-02-14 21:00:00,
2013-02-14 13:05:00,42.9,41.3,30.56,SSW,198,5.0,5.0,94,0.00,OVC,,0.01,WeatherDisplay:10.37,2013-02-14 21:05:00,
2013-02-14 13:10:00,42.9,41.3,30.56,South,189,3.0,3.0,94,0.00,OVC,,0.01,WeatherDisplay:10.37,2013-02-14 21:10:00,
2013-02-14 13:15:00,43.1,41.5,30.56,South,182,2.3,2.3,94,0.00,OVC,,0.01,WeatherDisplay:10.37,2013-02-14 21:15:00,
2013-02-14 13:20:00,43.2,41.6,30.56,SSE,154,3.5,3.5,94,0.00,OVC,,0.01,WeatherDisplay:10.37,2013-02-14 21:20:00,
2013-02-14 13:25:00,43.3,41.7,30.56,South,169,3.5,3.5,94,0.00,OVC,,0.01,WeatherDisplay:10.37,2013-02-14 21:25:00,
2013-02-14 13:30:00,43.3,41.7,30.56,South,171,3.5,3.5,94,0.00,OVC,,0.01,WeatherDisplay:10.37,2013-02-14 21:30:00,
2013-02-14 13:35:00,43.3,41.7,30.56,SSW,205,2.3,2.3,94,0.00,OVC,,0.01,WeatherDisplay:10.37,2013-02-14 21:35:00,
2013-02-14 13:40:00,43.3,41.7,30.56,South,180,3.5,3.5,94,0.00,OVC,,0.01,WeatherDisplay:10.37,2013-02-14 21:40:00,
2013-02-14 13:45:00,43.4,41.8,30.56,SSW,193,4.6,4.6,94,0.00,OVC,,0.01,WeatherDisplay:10.37,2013-02-14 21:45:00,
2013-02-14 13:50:00,43.4,41.8,30.56,SSW,202,4.6,4.6,94,0.00,OVC,,0.01,WeatherDisplay:10.37,2013-02-14 21:50:00,
2013-02-14 13:55:00,43.5,41.9,30.55,SE,146,3.5,3.5,94,0.00,OVC,,0.01,WeatherDisplay:10.37,2013-02-14 21:55:00,
2013-02-14 14:00:00,43.7,42.1,30.55,South,172,3.5,3.5,94,0.00,OVC,,0.01,WeatherDisplay:10.37,2013-02-14 22:00:00,
2013-02-14 14:05:00,43.7,42.1,30.55,South,171,5.8,5.8,94,0.01,RA,,0.02,WeatherDisplay:10.37,2013-02-14 22:05:00,
2013-02-14 14:10:00,43.6,42.0,30.55,SSW,202,4.6,4.6,94,0.01,RA,,0.02,WeatherDisplay:10.37,2013-02-14 22:10:00,
2013-02-14 14:15:00,43.6,42.0,30.55,South,186,3.5,3.5,94,0.01,OVC,,0.02,WeatherDisplay:10.37,2013-02-14 22:15:00,
2013-02-14 14:20:00,43.5,41.9,30.55,South,186,3.5,3.5,94,0.01,OVC,,0.02,WeatherDisplay:10.37,2013-02-14 22:20:00,
2013-02-14 14:25:00,43.5,41.9,30.55,South,182,3.5,3.5,94,0.01,OVC,,0.02,WeatherDisplay:10.37,2013-02-14 22:25:00,
2013-02-14 14:30:00,43.4,41.8,30.55,SSW,192,3.5,3.5,94,0.01,OVC,,0.02,WeatherDisplay:10.37,2013-02-14 22:30:00,
2013-02-14 14:35:00,43.5,41.9,30.55,South,172,3.5,3.5,94,0.01,OVC,,0.02,WeatherDisplay:10.37,2013-02-14 22:35:00,
2013-02-14 14:40:00,43.5,41.9,30.55,South,173,3.5,3.5,94,0.01,OVC,,0.02,WeatherDisplay:10.37,2013-02-14 22:40:00,
2013-02-14 14:45:00,43.6,42.0,30.55,South,173,1.1,1.1,94,0.01,OVC,,0.02,WeatherDisplay:10.37,2013-02-14 22:45:00,
2013-02-14 14:50:00,43.6,42.0,30.56,South,173,0.0,0.0,94,0.01,OVC,,0.02,WeatherDisplay:10.37,2013-02-14 22:50:00,
2013-02-14 14:55:00,43.7,42.1,30.55,South,173,0.0,0.0,94,0.01,OVC,,0.02,WeatherDisplay:10.37,2013-02-14 22:55:00,
2013-02-14 15:00:00,43.8,42.2,30.55,South,173,0.0,0.0,94,0.01,OVC,,0.02,WeatherDisplay:10.37,2013-02-14 23:00:00,
2013-02-14 15:05:00,43.8,42.5,30.55,South,173,1.1,1.1,95,0.01,OVC,,0.02,WeatherDisplay:10.37,2013-02-14 23:05:00,
2013-02-14 15:10:00,43.9,42.6,30.55,South,173,1.0,0.0,95,0.00,OVC,,0.02,WeatherDisplay:10.37,2013-02-14 23:10:00,
2013-02-14 15:15:00,43.9,42.6,30.55,South,173,1.1,0.0,95,0.00,OVC,,0.02,WeatherDisplay:10.37,2013-02-14 23:15:00,
2013-02-14 15:20:00,44.0,42.7,30.55,South,173,0.0,0.0,95,0.00,OVC,,0.02,WeatherDisplay:10.37,2013-02-14 23:20:00,
2013-02-14 15:25:00,44.1,42.8,30.54,South,173,0.0,0.0,95,0.00,OVC,,0.02,WeatherDisplay:10.37,2013-02-14 23:25:00,
2013-02-14 15:30:00,44.3,43.0,30.54,South,173,0.0,0.0,95,0.00,OVC,,0.02,WeatherDisplay:10.37,2013-02-14 23:30:00,
2013-02-14 15:35:00,44.5,43.2,30.54,South,173,0.0,0.0,95,0.00,OVC,,0.02,WeatherDisplay:10.37,2013-02-14 23:35:00,
2013-02-14 15:40:00,44.8,43.5,30.53,South,173,1.1,1.1,95,0.00,OVC,,0.02,WeatherDisplay:10.37,2013-02-14 23:40:00,
2013-02-14 15:45:00,45.0,43.7,30.53,South,173,0.0,0.0,95,0.00,OVC,,0.02,WeatherDisplay:10.37,2013-02-14 23:45:00,
2013-02-14 15:50:00,45.1,43.8,30.53,South,173,0.0,0.0,95,0.00,OVC,,0.02,WeatherDisplay:10.37,2013-02-14 23:50:00,
2013-02-14 15:55:00,45.2,43.9,30.54,South,173,1.1,1.1,95,0.00,OVC,,0.02,WeatherDisplay:10.37,2013-02-14 23:55:00,
2013-02-14 16:00:00,45.2,43.9,30.54,South,173,0.0,0.0,95,0.00,OVC,,0.02,WeatherDisplay:10.37,2013-02-15 00:00:00,
2013-02-14 16:05:00,45.3,44.0,30.54,South,173,0.0,0.0,95,0.00,OVC,,0.02,WeatherDisplay:10.37,2013-02-15 00:05:00,
2013-02-14 16:10:00,45.3,44.0,30.54,South,173,0.0,0.0,95,0.00,OVC,,0.02,WeatherDisplay:10.37,2013-02-15 00:10:00,
2013-02-14 16:15:00,45.2,43.9,30.53,South,173,0.0,0.0,95,0.00,OVC,,0.02,WeatherDisplay:10.37,2013-02-15 00:15:00,
2013-02-14 16:20:00,45.1,43.8,30.54,South,173,0.0,0.0,95,0.00,OVC,,0.02,WeatherDisplay:10.37,2013-02-15 00:20:00,
2013-02-14 16:25:00,45.1,43.8,30.54,South,173,0.0,0.0,95,0.00,OVC,,0.02,WeatherDisplay:10.37,2013-02-15 00:25:00,
2013-02-14 16:30:00,45.0,43.7,30.53,South,173,0.0,0.0,95,0.00,OVC,,0.02,WeatherDisplay:10.37,2013-02-15 00:30:00,
2013-02-14 16:35:00,45.0,43.7,30.53,South,173,0.0,0.0,95,0.00,OVC,,0.02,WeatherDisplay:10.37,2013-02-15 00:35:00,
2013-02-14 16:40:00,45.0,43.7,30.53,South,173,0.0,0.0,95,0.00,OVC,,0.02,WeatherDisplay:10.37,2013-02-15 00:40:00,
2013-02-14 16:45:00,45.0,43.7,30.53,South,173,0.0,0.0,95,0.00,OVC,,0.02,WeatherDisplay:10.37,2013-02-15 00:45:00,
2013-02-14 16:50:00,45.0,43.7,30.53,South,173,0.0,0.0,95,0.00,OVC,,0.02,WeatherDisplay:10.37,2013-02-15 00:50:00,
2013-02-14 16:55:00,45.0,43.7,30.53,South,173,0.0,0.0,95,0.00,OVC,,0.02,WeatherDisplay:10.37,2013-02-15 00:55:00,
2013-02-14 17:00:00,45.1,43.8,30.53,South,173,0.0,0.0,95,0.00,OVC,,0.02,WeatherDisplay:10.37,2013-02-15 01:00:00,
2013-02-14 17:05:00,45.1,43.8,30.53,South,173,0.0,0.0,95,0.00,OVC,,0.02,WeatherDisplay:10.37,2013-02-15 01:05:00,
2013-02-14 17:10:00,45.0,43.7,30.53,South,173,0.0,0.0,95,0.00,OVC,,0.02,WeatherDisplay:10.37,2013-02-15 01:10:00,
2013-02-14 17:15:00,45.0,43.7,30.53,South,173,0.0,0.0,95,0.00,OVC,,0.02,WeatherDisplay:10.37,2013-02-15 01:15:00,
2013-02-14 17:20:00,44.9,43.6,30.53,South,173,0.0,0.0,95,0.00,OVC,,0.02,WeatherDisplay:10.37,2013-02-15 01:20:00,
2013-02-14 17:25:00,44.9,43.6,30.53,South,173,0.0,0.0,95,0.00,OVC,,0.02,WeatherDisplay:10.37,2013-02-15 01:25:00,
2013-02-14 17:30:00,44.8,43.5,30.53,South,173,0.0,0.0,95,0.00,OVC,,0.02,WeatherDisplay:10.37,2013-02-15 01:30:00,
2013-02-14 17:35:00,44.7,43.4,30.53,South,173,0.0,0.0,95,0.00,OVC,,0.02,WeatherDisplay:10.37,2013-02-15 01:35:00,
2013-02-14 17:40:00,44.7,43.4,30.53,South,173,0.0,0.0,95,0.00,OVC,,0.02,WeatherDisplay:10.37,2013-02-15 01:40:00,
2013-02-14 17:45:00,44.6,43.3,30.53,South,173,0.0,0.0,95,0.00,OVC,,0.02,WeatherDisplay:10.37,2013-02-15 01:45:00,
2013-02-14 17:50:00,44.5,43.2,30.53,South,173,0.0,0.0,95,0.00,OVC,,0.02,WeatherDisplay:10.37,2013-02-15 01:50:00,
2013-02-14 17:55:00,44.5,43.2,30.53,South,173,0.0,0.0,95,0.00,OVC,,0.02,WeatherDisplay:10.37,2013-02-15 01:55:00,
2013-02-14 18:00:00,44.4,43.1,30.53,South,173,0.0,0.0,95,0.00,OVC,,0.02,WeatherDisplay:10.37,2013-02-15 02:00:00,
2013-02-14 18:05:00,44.3,43.0,30.53,South,173,0.0,0.0,95,0.00,OVC,,0.02,WeatherDisplay:10.37,2013-02-15 02:05:00,
2013-02-14 18:10:00,44.2,42.9,30.53,South,173,0.0,0.0,95,0.00,OVC,,0.02,WeatherDisplay:10.37,2013-02-15 02:10:00,
2013-02-14 18:15:00,44.1,42.8,30.53,South,173,0.0,0.0,95,0.00,OVC,,0.02,WeatherDisplay:10.37,2013-02-15 02:15:00,
2013-02-14 18:20:00,43.9,42.6,30.52,South,173,0.0,0.0,95,0.00,OVC,,0.02,WeatherDisplay:10.37,2013-02-15 02:20:00,
2013-02-14 18:25:00,43.8,42.5,30.52,South,173,0.0,0.0,95,0.00,OVC,,0.02,WeatherDisplay:10.37,2013-02-15 02:25:00,
2013-02-14 18:30:00,43.6,42.0,30.52,South,173,0.0,0.0,94,0.00,OVC,,0.02,WeatherDisplay:10.37,2013-02-15 02:30:00,
2013-02-14 18:35:00,43.6,42.0,30.52,South,173,0.0,0.0,94,0.00,OVC,,0.02,WeatherDisplay:10.37,2013-02-15 02:35:00,
2013-02-14 18:40:00,43.5,41.9,30.52,South,173,0.0,0.0,94,0.00,OVC,,0.02,WeatherDisplay:10.37,2013-02-15 02:40:00,
2013-02-14 18:45:00,43.4,42.1,30.53,South,173,0.0,0.0,95,0.00,OVC,,0.02,WeatherDisplay:10.37,2013-02-15 02:45:00,
2013-02-14 18:50:00,43.4,42.1,30.53,South,173,0.0,0.0,95,0.00,OVC,,0.02,WeatherDisplay:10.37,2013-02-15 02:50:00,
2013-02-14 18:55:00,43.3,42.0,30.53,South,173,0.0,0.0,95,0.00,OVC,,0.02,WeatherDisplay:10.37,2013-02-15 02:55:00,
2013-02-14 19:00:00,43.3,42.0,30.53,South,173,0.0,0.0,95,0.00,OVC,,0.02,WeatherDisplay:10.37,2013-02-15 03:00:00,
2013-02-14 19:05:00,43.2,41.9,30.52,South,173,0.0,0.0,95,0.00,OVC,,0.02,WeatherDisplay:10.37,2013-02-15 03:05:00,
2013-02-14 19:10:00,43.2,41.9,30.53,South,173,0.0,0.0,95,0.00,OVC,,0.02,WeatherDisplay:10.37,2013-02-15 03:10:00,
2013-02-14 19:15:00,43.2,41.9,30.52,South,173,0.0,0.0,95,0.00,OVC,,0.02,WeatherDisplay:10.37,2013-02-15 03:15:00,
2013-02-14 19:20:00,43.3,42.0,30.52,South,173,0.0,0.0,95,0.00,OVC,,0.02,WeatherDisplay:10.37,2013-02-15 03:20:00,
2013-02-14 19:26:00,43.4,42.1,30.52,South,173,0.0,0.0,95,0.00,OVC,,0.02,WeatherDisplay:10.37,2013-02-15 03:26:00,
2013-02-14 19:31:00,43.4,42.1,30.52,South,173,0.0,0.0,95,0.00,OVC,,0.02,WeatherDisplay:10.37,2013-02-15 03:31:00,
2013-02-14 19:36:00,43.4,42.1,30.52,South,173,0.0,0.0,95,0.00,OVC,,0.02,WeatherDisplay:10.37,2013-02-15 03:36:00,
2013-02-14 19:41:00,43.4,42.1,30.52,South,173,0.0,0.0,95,0.00,OVC,,0.02,WeatherDisplay:10.37,2013-02-15 03:41:00,
2013-02-14 19:46:00,43.4,42.1,30.52,South,173,0.0,0.0,95,0.00,OVC,,0.02,WeatherDisplay:10.37,2013-02-15 03:46:00,
2013-02-14 19:51:00,43.4,42.1,30.52,South,173,0.0,0.0,95,0.00,OVC,,0.02,WeatherDisplay:10.37,2013-02-15 03:51:00,
2013-02-14 19:56:00,43.4,42.1,30.52,South,173,0.0,0.0,95,0.00,OVC,,0.02,WeatherDisplay:10.37,2013-02-15 03:56:00,
2013-02-14 20:01:00,43.5,42.2,30.52,South,173,0.0,0.0,95,0.00,OVC,,0.02,WeatherDisplay:10.37,2013-02-15 04:01:00,
2013-02-14 20:06:00,43.6,42.3,30.52,South,173,0.0,0.0,95,0.00,OVC,,0.02,WeatherDisplay:10.37,2013-02-15 04:06:00,
2013-02-14 20:11:00,43.6,42.3,30.52,South,173,0.0,0.0,95,0.00,OVC,,0.02,WeatherDisplay:10.37,2013-02-15 04:11:00,
2013-02-14 20:16:00,43.6,42.3,30.52,South,173,0.0,0.0,95,0.00,OVC,,0.02,WeatherDisplay:10.37,2013-02-15 04:16:00,
2013-02-14 20:21:00,43.6,42.3,30.52,South,173,0.0,0.0,95,0.00,OVC,,0.02,WeatherDisplay:10.37,2013-02-15 04:21:00,
2013-02-14 20:26:00,43.7,42.4,30.52,South,173,0.0,0.0,95,0.00,OVC,,0.02,WeatherDisplay:10.37,2013-02-15 04:26:00,
2013-02-14 20:31:00,43.6,42.3,30.52,South,173,0.0,0.0,95,0.00,OVC,,0.02,WeatherDisplay:10.37,2013-02-15 04:31:00,
2013-02-14 20:36:00,43.6,42.3,30.52,South,173,0.0,0.0,95,0.00,OVC,,0.02,WeatherDisplay:10.37,2013-02-15 04:36:00,
2013-02-14 20:41:00,43.6,42.3,30.52,South,173,0.0,0.0,95,0.00,OVC,,0.02,WeatherDisplay:10.37,2013-02-15 04:41:00,
2013-02-14 20:46:00,43.7,42.4,30.52,South,173,0.0,0.0,95,0.00,OVC,,0.02,WeatherDisplay:10.37,2013-02-15 04:46:00,
2013-02-14 20:51:00,43.7,42.4,30.52,South,173,0.0,0.0,95,0.00,OVC,,0.02,WeatherDisplay:10.37,2013-02-15 04:51:00,
2013-02-14 20:56:00,43.8,42.5,30.53,South,173,0.0,0.0,95,0.00,OVC,,0.02,WeatherDisplay:10.37,2013-02-15 04:56:00,
2013-02-14 21:00:00,43.8,42.5,30.52,South,173,0.0,0.0,95,0.00,OVC,,0.02,WeatherDisplay:10.37,2013-02-15 05:00:00,
2013-02-14 21:05:00,43.9,42.6,30.52,South,173,0.0,0.0,95,0.00,OVC,,0.02,WeatherDisplay:10.37,2013-02-15 05:05:00,
2013-02-14 21:10:00,43.9,42.6,30.53,South,173,0.0,0.0,95,0.00,OVC,,0.02,WeatherDisplay:10.37,2013-02-15 05:10:00,
2013-02-14 21:15:00,43.9,42.6,30.53,South,173,0.0,0.0,95,0.00,OVC,,0.02,WeatherDisplay:10.37,2013-02-15 05:15:00,
2013-02-14 21:20:00,44.0,42.7,30.53,South,173,0.0,0.0,95,0.00,OVC,,0.02,WeatherDisplay:10.37,2013-02-15 05:20:00,
2013-02-14 21:25:00,44.0,42.7,30.53,South,173,0.0,0.0,95,0.00,OVC,,0.02,WeatherDisplay:10.37,2013-02-15 05:25:00,
2013-02-14 21:30:00,44.1,42.8,30.53,South,173,0.0,0.0,95,0.00,OVC,,0.02,WeatherDisplay:10.37,2013-02-15 05:30:00,
2013-02-14 21:35:00,44.1,42.8,30.53,South,173,0.0,0.0,95,0.00,OVC,,0.02,WeatherDisplay:10.37,2013-02-15 05:35:00,
2013-02-14 21:40:00,44.1,42.8,30.53,South,173,1.1,1.1,95,0.00,OVC,,0.02,WeatherDisplay:10.37,2013-02-15 05:40:00,
2013-02-14 21:45:00,44.1,42.8,30.53,South,173,0.0,0.0,95,0.00,OVC,,0.02,WeatherDisplay:10.37,2013-02-15 05:45:00,
2013-02-14 21:50:00,44.1,42.8,30.52,South,173,1.1,0.0,95,0.00,OVC,,0.02,WeatherDisplay:10.37,2013-02-15 05:50:00,
2013-02-14 21:55:00,44.1,42.8,30.52,South,173,0.0,0.0,95,0.00,OVC,,0.02,WeatherDisplay:10.37,2013-02-15 05:55:00,
2013-02-14 22:00:00,44.0,42.7,30.52,South,173,0.0,0.0,95,0.00,OVC,,0.02,WeatherDisplay:10.37,2013-02-15 06:00:00,
2013-02-14 22:05:00,44.0,42.7,30.52,South,173,0.0,0.0,95,0.00,OVC,,0.02,WeatherDisplay:10.37,2013-02-15 06:05:00,
2013-02-14 22:10:00,44.0,42.7,30.52,South,173,0.0,0.0,95,0.00,OVC,,0.02,WeatherDisplay:10.37,2013-02-15 06:10:00,
2013-02-14 22:15:00,43.9,42.6,30.52,South,173,1.1,0.0,95,0.00,OVC,,0.02,WeatherDisplay:10.37,2013-02-15 06:15:00,
2013-02-14 22:20:00,43.9,42.6,30.52,South,173,0.0,0.0,95,0.00,OVC,,0.02,WeatherDisplay:10.37,2013-02-15 06:20:00,
2013-02-14 22:25:00,43.9,42.6,30.52,South,175,0.0,0.0,95,0.00,OVC,,0.02,WeatherDisplay:10.37,2013-02-15 06:25:00,
2013-02-14 22:30:00,43.8,42.5,30.52,WNW,296,3.5,3.5,95,0.00,OVC,,0.02,WeatherDisplay:10.37,2013-02-15 06:30:00,
2013-02-14 22:35:00,43.8,42.5,30.52,WNW,296,0.0,0.0,95,0.00,OVC,,0.02,WeatherDisplay:10.37,2013-02-15 06:35:00,
2013-02-14 22:40:00,43.8,42.5,30.52,WNW,296,0.0,0.0,95,0.00,OVC,,0.02,WeatherDisplay:10.37,2013-02-15 06:40:00,
2013-02-14 22:45:00,43.8,42.5,30.52,WNW,296,2.3,2.3,95,0.00,OVC,,0.02,WeatherDisplay:10.37,2013-02-15 06:45:00,
2013-02-14 22:50:00,43.8,42.5,30.52,WNW,296,0.0,0.0,95,0.00,OVC,,0.02,WeatherDisplay:10.37,2013-02-15 06:50:00,
2013-02-14 22:55:00,43.7,42.4,30.52,WNW,296,1.1,1.1,95,0.00,OVC,,0.02,WeatherDisplay:10.37,2013-02-15 06:55:00,
2013-02-14 23:00:00,43.7,42.4,30.52,WNW,296,2.3,0.0,95,0.00,OVC,,0.02,WeatherDisplay:10.37,2013-02-15 07:00:00,
2013-02-14 23:05:00,43.6,42.3,30.52,WNW,302,0.0,0.0,95,0.00,OVC,,0.02,WeatherDisplay:10.37,2013-02-15 07:05:00,
2013-02-14 23:10:00,43.6,42.3,30.52,WNW,302,0.0,0.0,95,0.00,OVC,,0.02,WeatherDisplay:10.37,2013-02-15 07:10:00,
2013-02-14 23:15:00,43.5,42.2,30.52,WNW,302,0.0,0.0,95,0.00,OVC,,0.02,WeatherDisplay:10.37,2013-02-15 07:15:00,
2013-02-14 23:20:00,43.5,42.2,30.52,WNW,302,0.0,0.0,95,0.00,OVC,,0.02,WeatherDisplay:10.37,2013-02-15 07:20:00,
2013-02-14 23:25:00,43.5,42.2,30.52,WNW,302,0.0,0.0,95,0.00,OVC,,0.02,WeatherDisplay:10.37,2013-02-15 07:25:00,
2013-02-14 23:30:00,43.4,42.1,30.52,WNW,302,0.0,0.0,95,0.00,OVC,,0.02,WeatherDisplay:10.37,2013-02-15 07:30:00,
2013-02-14 23:35:00,43.3,42.0,30.52,WNW,302,0.0,0.0,95,0.00,OVC,,0.02,WeatherDisplay:10.37,2013-02-15 07:35:00,
2013-02-14 23:40:00,43.2,41.9,30.51,WNW,302,0.0,0.0,95,0.00,OVC,,0.02,WeatherDisplay:10.37,2013-02-15 07:40:00,
2013-02-14 23:45:00,43.1,41.8,30.51,WNW,302,0.0,0.0,95,0.00,OVC,,0.02,WeatherDisplay:10.37,2013-02-15 07:45:00,
2013-02-14 23:50:00,43.1,41.8,30.51,WNW,302,0.0,0.0,95,0.00,OVC,,0.02,WeatherDisplay:10.37,2013-02-15 07:50:00,
2013-02-14 23:55:00,43.0,41.7,30.51,WNW,302,0.0,0.0,95,0.00,OVC,,0.02,WeatherDisplay:10.37,2013-02-15 07:55:00,